createdAt,value
2023-02-15T00:01:51.124Z,5.04
2023-02-15T00:04:21.226Z,4.87
2023-02-15T00:06:50.604Z,5.46
2023-02-15T00:09:18.534Z,5.27
2023-02-15T00:11:51.108Z,5.20
2023-02-15T00:14:20.838Z,5.15
2023-02-15T00:16:49.636Z,4.84
2023-02-15T00:19:19.257Z,5.16
2023-02-15T00:21:47.680Z,4.83
2023-02-15T00:24:18.227Z,4.91
2023-02-15T00:26:47.054Z,4.65
2023-02-15T00:29:16.259Z,4.67
2023-02-15T00:31:44.367Z,4.75
2023-02-15T00:34:14.662Z,4.71
2023-02-15T00:36:42.440Z,4.62
2023-02-15T00:39:10.779Z,4.46
2023-02-15T00:41:40.446Z,4.42
2023-02-15T00:44:09.516Z,4.39
2023-02-15T00:46:37.848Z,4.34
2023-02-15T00:49:06.721Z,4.21
2023-02-15T00:51:34.779Z,4.20
2023-02-15T00:54:02.904Z,4.29
2023-02-15T00:56:30.882Z,4.20
2023-02-15T00:58:59.967Z,4.10
2023-02-15T01:01:27.791Z,4.46
2023-02-15T01:03:55.779Z,4.28
2023-02-15T01:06:23.562Z,4.48
2023-02-15T01:08:51.296Z,3.87
2023-02-15T01:11:23.140Z,4.03
2023-02-15T01:13:51.857Z,4.30
2023-02-15T01:16:21.581Z,4.09
2023-02-15T01:18:49.500Z,4.00
2023-02-15T01:21:19.918Z,4.31
2023-02-15T01:23:47.925Z,4.21
2023-02-15T01:26:16.327Z,3.91
2023-02-15T01:28:44.042Z,4.28
2023-02-15T01:31:14.024Z,4.29
2023-02-15T01:33:43.763Z,4.16
2023-02-15T01:36:11.938Z,3.85
2023-02-15T01:38:40.813Z,4.36
2023-02-15T01:41:24.855Z,4.33
2023-02-15T01:43:55.040Z,4.00
2023-02-15T01:46:26.980Z,4.22
2023-02-15T01:49:01.665Z,4.30
2023-02-15T01:51:32.207Z,4.20
2023-02-15T01:54:03.780Z,4.18
2023-02-15T01:56:35.483Z,4.23
2023-02-15T01:59:09.864Z,4.04
2023-02-15T02:01:37.924Z,3.80
2023-02-15T02:04:15.510Z,4.16
2023-02-15T02:06:43.488Z,4.48
2023-02-15T02:09:11.542Z,4.15
2023-02-15T02:11:41.181Z,4.58
2023-02-15T02:14:09.314Z,4.34
2023-02-15T02:16:44.643Z,4.41
2023-02-15T02:19:48.687Z,4.27
2023-02-15T02:22:35.775Z,4.29
2023-02-15T02:25:34.646Z,4.41
2023-02-15T02:28:16.292Z,4.25
2023-02-15T02:31:13.170Z,4.47
2023-02-15T02:33:56.151Z,4.31
2023-02-15T02:36:31.366Z,4.37
2023-02-15T02:39:12.130Z,4.52
2023-02-15T02:41:52.215Z,4.58
2023-02-15T02:44:24.391Z,4.53
2023-02-15T02:46:55.512Z,3.91
2023-02-15T02:49:36.963Z,3.75
2023-02-15T02:52:07.727Z,4.00
2023-02-15T02:54:37.569Z,4.09
2023-02-15T02:57:10.085Z,3.85
2023-02-15T02:59:42.677Z,3.66
2023-02-15T03:02:14.316Z,4.09
2023-02-15T03:04:48.427Z,3.68
2023-02-15T03:07:22.926Z,3.77
2023-02-15T03:09:53.618Z,4.01
2023-02-15T03:12:24.205Z,3.99
2023-02-15T03:14:55.521Z,3.76
2023-02-15T03:17:25.804Z,4.02
2023-02-15T03:19:59.573Z,3.86
2023-02-15T03:22:31.117Z,3.95
2023-02-15T03:25:02.730Z,3.75
2023-02-15T03:27:35.403Z,3.57
2023-02-15T03:30:05.659Z,3.45
2023-02-15T03:32:36.478Z,3.40
2023-02-15T03:35:06.358Z,3.38
2023-02-15T03:37:38.979Z,3.39
2023-02-15T03:40:31.167Z,3.08
2023-02-15T03:43:04.874Z,3.69
2023-02-15T03:45:35.087Z,3.41
2023-02-15T03:48:05.118Z,3.77
2023-02-15T03:50:55.516Z,3.68
2023-02-15T03:53:27.293Z,3.66
2023-02-15T03:55:56.958Z,3.48
2023-02-15T03:58:42.005Z,3.51
2023-02-15T04:01:32.967Z,3.57
2023-02-15T04:04:06.288Z,3.34
2023-02-15T04:06:35.712Z,3.21
2023-02-15T04:09:23.023Z,3.10
2023-02-15T04:11:50.723Z,3.28
2023-02-15T04:14:36.151Z,3.24
2023-02-15T04:17:07.295Z,3.23
2023-02-15T04:19:52.784Z,3.55
2023-02-15T04:22:39.836Z,3.25
2023-02-15T04:25:14.462Z,3.18
2023-02-15T04:27:44.073Z,3.32
2023-02-15T04:30:13.720Z,3.22
2023-02-15T04:32:41.733Z,3.21
2023-02-15T04:35:10.433Z,3.17
2023-02-15T04:37:40.178Z,3.32
2023-02-15T04:40:09.728Z,3.43
2023-02-15T04:42:37.627Z,3.64
2023-02-15T04:45:05.732Z,3.56
2023-02-15T04:47:33.586Z,3.95
2023-02-15T04:50:01.438Z,3.60
2023-02-15T04:52:29.202Z,3.23
2023-02-15T04:54:58.281Z,3.02
2023-02-15T04:57:26.039Z,2.79
2023-02-15T04:59:53.790Z,2.85
2023-02-15T05:02:21.530Z,2.56
2023-02-15T05:04:49.246Z,2.57
2023-02-15T05:07:16.946Z,2.71
2023-02-15T05:09:44.668Z,2.65
2023-02-15T05:12:13.796Z,2.69
2023-02-15T05:14:41.528Z,2.89
2023-02-15T05:17:09.270Z,3.36
2023-02-15T05:19:36.984Z,3.44
2023-02-15T05:22:04.783Z,3.40
2023-02-15T05:24:50.206Z,3.25
2023-02-15T05:27:36.886Z,3.27
2023-02-15T05:30:05.121Z,3.49
2023-02-15T05:32:33.031Z,3.89
2023-02-15T05:35:00.803Z,3.78
2023-02-15T05:37:28.504Z,3.57
2023-02-15T05:39:56.196Z,3.29
2023-02-15T05:42:25.276Z,3.17
2023-02-15T05:44:53.020Z,3.26
2023-02-15T05:47:20.725Z,3.28
2023-02-15T05:49:48.469Z,2.68
2023-02-15T05:52:16.180Z,2.66
2023-02-15T05:54:43.908Z,2.89
2023-02-15T05:57:11.675Z,2.74
2023-02-15T05:59:40.760Z,2.78
2023-02-15T06:02:08.499Z,2.71
2023-02-15T06:04:36.253Z,2.74
2023-02-15T06:07:03.989Z,2.58
2023-02-15T06:09:31.716Z,2.38
2023-02-15T06:11:59.470Z,2.61
2023-02-15T06:14:27.221Z,2.59
2023-02-15T06:16:56.330Z,2.66
2023-02-15T06:19:24.350Z,2.43
2023-02-15T06:21:52.074Z,2.82
2023-02-15T06:24:19.760Z,3.11
2023-02-15T06:26:47.555Z,2.87
2023-02-15T06:29:15.329Z,2.44
2023-02-15T06:31:43.250Z,3.20
2023-02-15T06:34:12.441Z,2.87
2023-02-15T06:36:40.199Z,2.61
2023-02-15T06:39:08.167Z,3.09
2023-02-15T06:41:35.895Z,2.97
2023-02-15T06:44:03.600Z,3.12
2023-02-15T06:46:31.370Z,2.85
2023-02-15T06:48:59.052Z,2.74
2023-02-15T06:51:28.275Z,2.79
2023-02-15T06:53:55.993Z,2.39
2023-02-15T06:56:23.683Z,2.98
2023-02-15T06:58:51.417Z,2.85
2023-02-15T07:01:19.158Z,2.80
2023-02-15T07:03:47.583Z,2.75
2023-02-15T07:06:15.421Z,2.78
2023-02-15T07:08:44.758Z,2.82
2023-02-15T07:11:29.901Z,2.69
2023-02-15T07:13:57.798Z,3.02
2023-02-15T07:16:25.727Z,3.25
2023-02-15T07:18:53.511Z,3.10
2023-02-15T07:21:21.282Z,3.08
2023-02-15T07:23:50.387Z,3.09
2023-02-15T07:26:18.116Z,3.06
2023-02-15T07:28:45.926Z,3.29
2023-02-15T07:31:13.674Z,3.34
2023-02-15T07:33:41.442Z,3.29
2023-02-15T07:36:12.442Z,3.75
2023-02-15T07:38:42.914Z,3.16
2023-02-15T07:41:14.215Z,3.60
2023-02-15T07:43:44.268Z,4.06
2023-02-15T07:46:14.103Z,3.58
2023-02-15T07:48:42.625Z,4.04
2023-02-15T07:51:12.838Z,3.94
2023-02-15T07:53:40.833Z,4.14
2023-02-15T07:56:13.520Z,4.33
2023-02-15T07:58:53.400Z,4.48
2023-02-15T08:01:23.358Z,4.35
2023-02-15T08:03:51.846Z,4.62
2023-02-15T08:06:20.022Z,4.64
2023-02-15T08:08:47.777Z,4.66
2023-02-15T08:11:30.243Z,4.90
2023-02-15T08:14:00.967Z,4.96
2023-02-15T08:16:32.242Z,4.87
2023-02-15T08:19:01.886Z,5.27
2023-02-15T08:21:31.402Z,5.46
2023-02-15T08:24:00.149Z,5.57
2023-02-15T08:26:30.743Z,5.18
2023-02-15T08:28:59.498Z,6.06
2023-02-15T08:31:28.078Z,6.07
2023-02-15T08:33:57.943Z,6.17
2023-02-15T08:36:28.078Z,6.37
2023-02-15T08:38:55.800Z,6.18
2023-02-15T08:41:25.571Z,6.82
2023-02-15T08:43:57.399Z,6.33
2023-02-15T08:46:27.981Z,6.14
2023-02-15T08:48:56.238Z,6.14
2023-02-15T08:51:26.526Z,5.70
2023-02-15T08:53:56.372Z,5.87
2023-02-15T08:56:26.853Z,5.21
2023-02-15T08:58:56.936Z,5.36
2023-02-15T09:01:26.826Z,4.55
2023-02-15T09:04:03.099Z,4.61
2023-02-15T09:06:31.109Z,4.38
2023-02-15T09:08:58.914Z,4.30
2023-02-15T09:11:28.285Z,4.05
2023-02-15T09:13:58.771Z,4.50
2023-02-15T09:16:29.575Z,4.43
2023-02-15T09:18:58.864Z,4.02
2023-02-15T09:21:27.981Z,4.34
2023-02-15T09:23:58.662Z,4.86
2023-02-15T09:26:26.781Z,4.60
2023-02-15T09:28:56.843Z,4.49
2023-02-15T09:31:27.966Z,4.11
2023-02-15T09:33:56.281Z,3.96
2023-02-15T09:36:25.852Z,4.69
2023-02-15T09:38:58.459Z,4.55
2023-02-15T09:41:57.786Z,4.88
2023-02-15T09:44:36.570Z,4.69
2023-02-15T09:47:23.511Z,4.68
2023-02-15T09:50:01.010Z,4.65
2023-02-15T09:52:41.190Z,5.20
2023-02-15T09:55:30.895Z,4.74
2023-02-15T09:58:09.945Z,4.76
2023-02-15T10:00:48.956Z,4.52
2023-02-15T10:03:35.747Z,4.55
2023-02-15T10:06:25.508Z,4.51
2023-02-15T10:09:05.321Z,4.61
2023-02-15T10:11:46.285Z,4.91
2023-02-15T10:14:40.219Z,4.89
2023-02-15T10:17:22.062Z,5.10
2023-02-15T10:20:05.706Z,5.66
2023-02-15T10:22:50.082Z,5.27
2023-02-15T10:25:34.224Z,5.33
2023-02-15T10:28:07.467Z,5.46
2023-02-15T10:30:44.698Z,5.10
2023-02-15T10:33:23.454Z,4.42
2023-02-15T10:35:57.525Z,5.18
2023-02-15T10:38:35.705Z,4.90
2023-02-15T10:41:15.353Z,5.54
2023-02-15T10:43:53.488Z,5.34
2023-02-15T10:46:37.995Z,5.62
2023-02-15T10:49:28.168Z,5.40
2023-02-15T10:52:15.798Z,5.43
2023-02-15T10:54:50.894Z,5.71
2023-02-15T10:57:25.866Z,6.09
2023-02-15T11:00:05.223Z,6.22
2023-02-15T11:02:47.743Z,5.88
2023-02-15T11:05:36.422Z,5.89
2023-02-15T11:08:10.439Z,6.49
2023-02-15T11:10:41.617Z,6.24
2023-02-15T11:13:13.786Z,6.15
2023-02-15T11:15:46.867Z,6.57
2023-02-15T11:18:21.123Z,6.04
2023-02-15T11:20:56.643Z,6.81
2023-02-15T11:23:28.379Z,7.05
2023-02-15T11:25:59.873Z,7.34
2023-02-15T11:28:33.856Z,6.41
2023-02-15T11:31:13.356Z,6.92
2023-02-15T11:33:46.555Z,6.83
2023-02-15T11:36:18.206Z,6.82
2023-02-15T11:38:50.588Z,6.69
2023-02-15T11:41:24.886Z,7.27
2023-02-15T11:43:58.937Z,6.59
2023-02-15T11:46:26.988Z,7.50
2023-02-15T11:48:54.826Z,6.53
2023-02-15T11:51:24.602Z,7.40
2023-02-15T11:53:54.081Z,6.68
2023-02-15T11:56:24.328Z,6.95
2023-02-15T11:58:57.815Z,7.01
2023-02-15T12:01:32.808Z,6.97
2023-02-15T12:04:06.159Z,7.12
2023-02-15T12:06:36.200Z,7.35
2023-02-15T12:09:15.273Z,7.46
2023-02-15T12:11:43.689Z,7.69
2023-02-15T12:14:16.709Z,7.42
2023-02-15T12:16:49.110Z,7.51
2023-02-15T12:19:38.985Z,7.80
2023-02-15T12:22:10.193Z,7.53
2023-02-15T12:24:47.691Z,7.34
2023-02-15T12:27:18.633Z,6.82
2023-02-15T12:29:51.117Z,6.95
2023-02-15T12:32:21.807Z,7.08
2023-02-15T12:34:51.187Z,7.03
2023-02-15T12:37:21.801Z,7.24
2023-02-15T12:39:56.637Z,7.65
2023-02-15T12:42:25.417Z,7.43
2023-02-15T12:44:59.559Z,8.27
2023-02-15T12:47:29.624Z,8.16
2023-02-15T12:50:21.620Z,8.45
2023-02-15T12:52:51.682Z,8.68
2023-02-15T12:55:27.448Z,8.60
2023-02-15T12:58:08.889Z,8.43
2023-02-15T13:00:36.753Z,8.62
2023-02-15T13:03:05.692Z,8.39
2023-02-15T13:05:38.038Z,8.03
2023-02-15T13:08:13.354Z,7.05
2023-02-15T13:10:54.032Z,7.61
2023-02-15T13:13:24.557Z,7.74
2023-02-15T13:15:54.172Z,8.25
2023-02-15T13:18:35.164Z,7.40
2023-02-15T13:21:08.483Z,7.44
2023-02-15T13:23:36.543Z,6.90
2023-02-15T13:26:11.591Z,7.37
2023-02-15T13:28:42.618Z,7.14
2023-02-15T13:31:16.165Z,7.05
2023-02-15T13:33:48.760Z,7.62
2023-02-15T13:36:25.724Z,6.73
2023-02-15T13:39:11.738Z,6.46
2023-02-15T13:41:53.198Z,6.81
2023-02-15T13:44:30.138Z,7.07
2023-02-15T13:47:16.120Z,7.27
2023-02-15T13:49:56.788Z,7.26
2023-02-15T13:52:26.492Z,7.47
2023-02-15T13:55:31.614Z,8.04
2023-02-15T13:58:24.734Z,7.87
2023-02-15T14:01:02.167Z,7.53
2023-02-15T14:03:50.895Z,8.07
2023-02-15T14:06:36.630Z,7.55
2023-02-15T14:09:17.292Z,8.18
2023-02-15T14:11:52.842Z,8.31
2023-02-15T14:14:41.022Z,7.95
2023-02-15T14:17:17.096Z,8.37
2023-02-15T14:19:51.036Z,7.85
2023-02-15T14:22:28.167Z,7.63
2023-02-15T14:25:11.471Z,7.40
2023-02-15T14:27:53.173Z,7.85
2023-02-15T14:30:25.636Z,8.20
2023-02-15T14:32:56.782Z,7.81
2023-02-15T14:35:29.131Z,8.62
2023-02-15T14:38:06.125Z,7.91
2023-02-15T14:40:59.910Z,7.58
2023-02-15T14:43:37.761Z,7.24
2023-02-15T14:46:18.756Z,7.65
2023-02-15T14:48:50.302Z,7.81
2023-02-15T14:51:59.824Z,7.69
2023-02-15T14:54:57.232Z,7.23
2023-02-15T14:57:36.771Z,7.44
2023-02-15T15:00:41.181Z,7.22
2023-02-15T15:03:25.499Z,8.11
2023-02-15T15:05:56.006Z,7.70
2023-02-15T15:08:30.500Z,7.45
2023-02-15T15:10:58.264Z,7.53
2023-02-15T15:13:53.500Z,7.63
2023-02-15T15:16:51.709Z,7.26
2023-02-15T15:20:05.193Z,7.44
2023-02-15T15:22:36.471Z,7.82
2023-02-15T15:25:05.772Z,7.83
2023-02-15T15:27:54.903Z,6.89
2023-02-15T15:30:49.005Z,7.38
2023-02-15T15:33:41.822Z,7.38
2023-02-15T15:36:36.099Z,7.22
2023-02-15T15:39:21.456Z,7.26
2023-02-15T15:41:57.984Z,7.33
2023-02-15T15:45:05.349Z,6.78
2023-02-15T15:48:07.355Z,7.17
2023-02-15T15:50:36.151Z,7.56
2023-02-15T15:53:05.266Z,7.60
2023-02-15T15:55:36.530Z,7.30
2023-02-15T15:58:08.045Z,8.06
2023-02-15T16:00:40.205Z,7.88
2023-02-15T16:03:07.958Z,8.28
2023-02-15T16:05:39.842Z,8.10
2023-02-15T16:08:08.067Z,7.69
2023-02-15T16:10:38.956Z,7.63
2023-02-15T16:13:08.425Z,7.12
2023-02-15T16:15:45.323Z,7.12
2023-02-15T16:18:17.699Z,7.29
2023-02-15T16:20:52.943Z,7.70
2023-02-15T16:23:39.219Z,7.53
2023-02-15T16:26:16.750Z,7.62
2023-02-15T16:28:51.075Z,7.56
2023-02-15T16:31:19.378Z,7.33
2023-02-15T16:33:48.210Z,7.11
2023-02-15T16:36:23.638Z,7.57
2023-02-15T16:39:10.862Z,7.90
2023-02-15T16:41:40.423Z,7.51
2023-02-15T16:44:14.055Z,7.71
2023-02-15T16:46:45.842Z,7.74
2023-02-15T16:49:19.319Z,7.63
2023-02-15T16:51:55.647Z,7.66
2023-02-15T16:54:25.027Z,7.87
2023-02-15T16:56:54.457Z,7.93
2023-02-15T16:59:34.712Z,7.72
2023-02-15T17:02:06.308Z,8.12
2023-02-15T17:04:35.547Z,7.97
2023-02-15T17:07:06.754Z,7.21
2023-02-15T17:09:35.920Z,7.66
2023-02-15T17:12:12.054Z,7.64
2023-02-15T17:14:41.741Z,8.01
2023-02-15T17:17:14.544Z,8.00
2023-02-15T17:19:50.814Z,7.89
2023-02-15T17:22:22.419Z,7.62
2023-02-15T17:24:52.280Z,7.16
2023-02-15T17:27:25.840Z,7.63
2023-02-15T17:29:57.593Z,7.97
2023-02-15T17:32:28.001Z,8.05
2023-02-15T17:35:11.132Z,7.13
2023-02-15T17:37:47.310Z,6.80
2023-02-15T17:40:24.956Z,6.86
2023-02-15T17:42:54.785Z,6.90
2023-02-15T17:45:23.702Z,7.25
2023-02-15T17:47:52.097Z,6.94
2023-02-15T17:50:23.755Z,6.63
2023-02-15T17:52:52.661Z,6.96
2023-02-15T17:55:39.162Z,6.77
2023-02-15T17:58:11.260Z,6.88
2023-02-15T18:01:00.570Z,6.69
2023-02-15T18:03:57.754Z,7.08
2023-02-15T18:06:43.579Z,6.53
2023-02-15T18:09:30.323Z,6.14
2023-02-15T18:11:58.453Z,6.70
2023-02-15T18:14:27.670Z,6.88
2023-02-15T18:16:56.317Z,6.64
2023-02-15T18:19:27.069Z,6.74
2023-02-15T18:21:57.618Z,6.72
2023-02-15T18:24:27.732Z,6.08
2023-02-15T18:26:56.153Z,5.86
2023-02-15T18:29:23.886Z,5.97
2023-02-15T18:31:56.924Z,5.83
2023-02-15T18:34:28.490Z,6.00
2023-02-15T18:36:57.649Z,6.21
2023-02-15T18:39:30.754Z,6.13
2023-02-15T18:41:58.906Z,6.33
2023-02-15T18:44:27.279Z,5.96
2023-02-15T18:46:56.365Z,6.17
2023-02-15T18:49:24.388Z,5.61
2023-02-15T18:51:53.604Z,5.94
2023-02-15T18:54:24.153Z,5.62
2023-02-15T18:56:56.097Z,5.44
2023-02-15T18:59:24.932Z,5.61
2023-02-15T19:01:53.065Z,5.89
2023-02-15T19:04:24.217Z,6.12
2023-02-15T19:06:53.472Z,6.09
2023-02-15T19:09:23.605Z,5.55
2023-02-15T19:11:54.440Z,5.34
2023-02-15T19:14:27.163Z,5.38
2023-02-15T19:16:55.507Z,5.50
2023-02-15T19:19:25.265Z,5.85
2023-02-15T19:21:53.446Z,6.13
2023-02-15T19:24:25.204Z,5.68
2023-02-15T19:26:53.445Z,5.67
2023-02-15T19:29:26.928Z,5.75
2023-02-15T19:31:55.046Z,5.33
2023-02-15T19:34:24.213Z,5.57
2023-02-15T19:36:56.557Z,5.71
2023-02-15T19:39:27.201Z,5.67
2023-02-15T19:41:55.050Z,5.58
2023-02-15T19:44:23.169Z,5.75
2023-02-15T19:46:51.465Z,5.58
2023-02-15T19:49:19.437Z,5.86
2023-02-15T19:51:48.746Z,5.37
2023-02-15T19:54:29.531Z,6.03
2023-02-15T19:56:57.469Z,5.43
2023-02-15T19:59:27.089Z,4.91
2023-02-15T20:01:55.290Z,5.44
2023-02-15T20:04:23.223Z,5.77
2023-02-15T20:06:55.170Z,6.07
2023-02-15T20:09:25.595Z,5.93
2023-02-15T20:11:54.156Z,5.74
2023-02-15T20:14:22.793Z,5.87
2023-02-15T20:16:51.406Z,6.32
2023-02-15T20:19:19.109Z,5.96
2023-02-15T20:21:51.735Z,5.71
2023-02-15T20:24:23.500Z,5.67
2023-02-15T20:26:51.252Z,5.19
2023-02-15T20:29:20.060Z,5.72
2023-02-15T20:31:47.914Z,5.95
2023-02-15T20:34:15.736Z,5.18
2023-02-15T20:36:43.448Z,5.16
2023-02-15T20:39:16.572Z,5.06
2023-02-15T20:41:48.258Z,5.31
2023-02-15T20:44:20.482Z,4.97
2023-02-15T20:46:50.289Z,5.34
2023-02-15T20:49:18.107Z,5.00
2023-02-15T20:51:47.415Z,4.74
2023-02-15T20:54:17.791Z,5.04
2023-02-15T20:56:47.749Z,4.97
2023-02-15T20:59:23.130Z,4.84
2023-02-15T21:01:52.836Z,4.65
2023-02-15T21:04:25.833Z,5.41
2023-02-15T21:06:53.647Z,5.57
2023-02-15T21:09:21.466Z,5.33
2023-02-15T21:11:53.196Z,5.35
2023-02-15T21:14:22.685Z,5.41
2023-02-15T21:16:53.373Z,5.55
2023-02-15T21:19:22.857Z,5.22
2023-02-15T21:21:53.328Z,4.45
2023-02-15T21:24:24.195Z,5.00
2023-02-15T21:26:54.320Z,5.41
2023-02-15T21:29:23.955Z,5.67
2023-02-15T21:31:51.859Z,5.50
2023-02-15T21:34:21.796Z,6.14
2023-02-15T21:36:51.068Z,5.37
2023-02-15T21:39:21.836Z,5.56
2023-02-15T21:42:09.188Z,5.77
2023-02-15T21:45:04.278Z,5.45
2023-02-15T21:47:50.241Z,5.95
2023-02-15T21:50:33.527Z,5.25
2023-02-15T21:53:04.187Z,5.50
2023-02-15T21:55:34.587Z,5.48
2023-02-15T21:58:03.034Z,4.93
2023-02-15T22:00:35.220Z,5.46
2023-02-15T22:03:05.089Z,5.50
2023-02-15T22:05:35.001Z,5.42
2023-02-15T22:08:02.726Z,5.68
2023-02-15T22:10:32.597Z,5.08
2023-02-15T22:13:01.585Z,4.99
2023-02-15T22:15:35.642Z,5.28
2023-02-15T22:18:03.570Z,4.54
2023-02-15T22:20:31.355Z,5.15
2023-02-15T22:22:59.117Z,5.54
2023-02-15T22:25:27.734Z,5.33
2023-02-15T22:27:56.540Z,5.47
2023-02-15T22:30:27.781Z,5.12
2023-02-15T22:32:58.318Z,4.60
2023-02-15T22:35:27.793Z,4.87
2023-02-15T22:37:56.158Z,4.19
2023-02-15T22:40:28.869Z,4.52
2023-02-15T22:42:58.008Z,4.51
2023-02-15T22:45:28.051Z,4.66
2023-02-15T22:47:59.970Z,4.60
2023-02-15T22:50:30.922Z,4.80
2023-02-15T22:53:00.858Z,5.18
2023-02-15T22:55:33.231Z,5.35
2023-02-15T22:58:01.617Z,5.30
2023-02-15T23:00:32.453Z,5.02
2023-02-15T23:03:02.412Z,5.71
2023-02-15T23:05:31.883Z,4.97
2023-02-15T23:07:59.658Z,4.78
2023-02-15T23:10:29.887Z,5.12
2023-02-15T23:13:16.729Z,5.40
2023-02-15T23:15:48.727Z,5.27
2023-02-15T23:18:21.199Z,4.75
2023-02-15T23:20:51.960Z,4.69
2023-02-15T23:23:25.434Z,4.87
2023-02-15T23:25:53.153Z,5.33
2023-02-15T23:28:25.040Z,5.32
2023-02-15T23:30:53.037Z,4.80
2023-02-15T23:33:24.811Z,4.98
2023-02-15T23:35:52.626Z,4.97
2023-02-15T23:38:23.212Z,4.38
2023-02-15T23:41:11.781Z,4.61
2023-02-15T23:43:42.019Z,4.71
2023-02-15T23:46:09.850Z,4.74
2023-02-15T23:48:40.329Z,4.91
2023-02-15T23:51:08.117Z,4.62
2023-02-15T23:53:35.834Z,4.15
2023-02-15T23:56:03.814Z,4.24
2023-02-15T23:58:37.213Z,4.69
